Time;durP1;ratioP1;P1;durP2;ratioP2;P2;SDS_P1;SDS_P2;PMS_P1;PMS_P2;Temp;Humidity;BMP_temperature;BMP_pressure;BME280_temperature;BME280_humidity;BME280_pressure;Samples;Min_cycle;Max_cycle;Signal;HPM_P1;HPM_P2
2022/10/08 00:00:45;;;;;;;;;;;;;;;12.99;61.20;95946.56;5053243;28;977;-67
2022/10/08 00:03:14;;;;;;;;;;;;;;;12.99;61.35;95946.56;5053249;28;1983;-66
2022/10/08 00:05:41;;;;;;;;;;;;;;;12.95;61.05;95945.19;5053114;28;1016;-67
2022/10/08 00:08:07;;;;;;;;;;;;;;;12.93;61.14;95944.53;5053312;28;998;-66
2022/10/08 00:10:33;;;;;;;;;;;;;;;12.94;61.56;95945.34;5052970;28;1056;-67
2022/10/08 00:13:00;;;;;;;;;;;;;;;12.91;61.30;95949.22;5053278;28;986;-66
2022/10/08 00:15:26;;;;;;;;;;;;;;;12.87;61.71;95942.47;5052936;28;1159;-66
2022/10/08 00:17:52;;;;;;;;;;;;;;;12.80;61.87;95938.72;5053243;28;985;-66
2022/10/08 00:20:18;;;;;;;;;;;;;;;12.74;62.47;95940.19;5053161;28;1066;-66
2022/10/08 00:22:44;;;;;;;;;;;;;;;12.76;61.81;95934.66;5052999;28;1974;-66
2022/10/08 00:25:10;;;;;;;;;;;;;;;12.72;61.87;95941.34;5052979;28;1065;-65
2022/10/08 00:27:36;;;;;;;;;;;;;;;12.79;61.14;95923.63;5052919;28;1104;-66
2022/10/08 00:30:02;;;;;;;;;;;;;;;12.73;61.24;95925.09;5053157;28;1297;-66
2022/10/08 00:32:28;;;;;;;;;;;;;;;12.67;61.21;95923.88;5052789;28;1247;-66
2022/10/08 00:34:54;;;;;;;;;;;;;;;12.69;61.37;95929.94;5053192;28;1234;-66
2022/10/08 00:37:21;;;;;;;;;;;;;;;12.61;61.17;95924.47;5056692;28;1096;-66
2022/10/08 00:39:47;;;;;;;;;;;;;;;12.57;61.94;95927.63;5056492;28;1096;-66
2022/10/08 00:42:13;;;;;;;;;;;;;;;12.51;61.90;95921.03;5056903;28;1013;-66
2022/10/08 00:44:54;;;;;;;;;;;;;;;12.48;62.41;95918.66;5056518;28;1133;-66
2022/10/08 00:47:23;;;;;;;;;;;;;;;12.45;62.79;95919.81;5056636;28;914;-66
2022/10/08 00:49:52;;;;;;;;;;;;;;;12.42;63.05;95919.28;5056581;28;970;-66
2022/10/08 00:52:18;;;;;;;;;;;;;;;12.42;62.94;95921.97;5055343;28;977;-66
2022/10/08 00:54:45;;;;;;;;;;;;;;;12.42;62.76;95913.91;5056607;28;953;-66
2022/10/08 00:57:11;;;;;;;;;;;;;;;12.42;62.24;95911.22;5056607;28;1040;-66
2022/10/08 00:59:37;;;;;;;;;;;;;;;12.45;61.48;95914.44;5056416;28;972;-66
2022/10/08 01:02:07;;;;;;;;;;;;;;;12.41;61.82;95913.09;5056459;28;1005;-66
2022/10/08 01:04:33;;;;;;;;;;;;;;;12.43;61.84;95907.56;5056129;28;1983;-66
2022/10/08 01:07:08;;;;;;;;;;;;;;;12.39;62.00;95903.50;5056237;28;1108;-66
2022/10/08 01:09:41;;;;;;;;;;;;;;;12.32;61.17;95907.81;5056185;28;1124;-66
2022/10/08 01:12:10;;;;;;;;;;;;;;;12.30;61.39;95903.41;5056392;28;976;-66
2022/10/08 01:14:38;;;;;;;;;;;;;;;12.30;61.75;95899.91;5056047;28;1225;-66
2022/10/08 01:17:09;;;;;;;;;;;;;;;12.27;61.36;95902.88;5056030;28;1073;-66
2022/10/08 01:19:51;;;;;;;;;;;;;;;12.22;61.84;95902.50;5056273;28;1128;-66
2022/10/08 01:22:28;;;;;;;;;;;;;;;12.22;61.78;95892.63;5056107;28;1906;-65
2022/10/08 01:27:44;;;;;;;;;;;;;;;12.19;61.88;95900.13;5055850;28;969;-66
2022/10/08 01:30:15;;;;;;;;;;;;;;;12.13;62.40;95890.03;5038388;28;1040;-66
2022/10/08 01:32:45;;;;;;;;;;;;;;;12.11;62.09;95882.13;5055549;28;1136;-66
2022/10/08 01:35:30;;;;;;;;;;;;;;;12.10;62.68;95885.78;5055871;28;1024;-66
2022/10/08 01:37:59;;;;;;;;;;;;;;;12.03;62.51;95882.06;5055678;28;1060;-66
2022/10/08 01:40:28;;;;;;;;;;;;;;;12.00;62.58;95877.81;5055557;28;998;-65
2022/10/08 01:42:55;;;;;;;;;;;;;;;12.04;63.21;95870.31;5055704;28;2009;-65
2022/10/08 01:45:23;;;;;;;;;;;;;;;12.01;63.10;95870.63;5055686;28;969;-66
2022/10/08 01:47:50;;;;;;;;;;;;;;;12.00;62.88;95869.78;5055405;28;1061;-66
2022/10/08 01:50:22;;;;;;;;;;;;;;;11.99;62.87;95870.78;5055484;28;1252;-66
2022/10/08 01:52:51;;;;;;;;;;;;;;;11.99;62.35;95875.28;5055375;28;1120;-67
2022/10/08 01:55:27;;;;;;;;;;;;;;;11.98;62.60;95876.31;5055329;28;1070;-66
2022/10/08 01:57:56;;;;;;;;;;;;;;;11.96;62.96;95872.94;5055410;28;1030;-67
2022/10/08 02:00:23;;;;;;;;;;;;;;;11.96;62.74;95886.34;5055372;28;957;-66
2022/10/08 02:02:49;;;;;;;;;;;;;;;11.91;62.08;95884.09;5055149;28;1910;-66
2022/10/08 02:05:15;;;;;;;;;;;;;;;11.85;62.35;95884.66;5055136;28;970;-67
2022/10/08 02:07:42;;;;;;;;;;;;;;;11.83;62.37;95886.66;5055273;28;994;-66
2022/10/08 02:10:15;;;;;;;;;;;;;;;11.84;62.26;95883.00;5055230;28;1029;-67
2022/10/08 02:12:42;;;;;;;;;;;;;;;11.81;62.34;95885.97;5055067;28;1036;-66
2022/10/08 02:15:17;;;;;;;;;;;;;;;11.80;62.36;95886.94;5054943;28;1158;-66
2022/10/08 02:17:49;;;;;;;;;;;;;;;11.78;62.26;95879.09;5054874;28;1037;-66
2022/10/08 02:20:19;;;;;;;;;;;;;;;11.76;62.31;95882.88;5055118;28;993;-67
2022/10/08 02:22:45;;;;;;;;;;;;;;;11.66;62.15;95881.09;5055180;28;1906;-66
2022/10/08 02:25:29;;;;;;;;;;;;;;;11.60;62.94;95884.41;5054885;28;1044;-67
2022/10/08 02:28:14;;;;;;;;;;;;;;;11.52;62.81;95881.63;5054864;28;1045;-66
2022/10/08 02:30:43;;;;;;;;;;;;;;;11.51;62.77;95879.94;5054782;28;1057;-67
2022/10/08 02:33:14;;;;;;;;;;;;;;;11.51;62.83;95880.78;5053370;28;1184;-67
2022/10/08 02:35:49;;;;;;;;;;;;;;;11.45;63.16;95870.66;5054485;28;1053;-66
2022/10/08 02:38:21;;;;;;;;;;;;;;;11.51;63.16;95877.25;5054503;28;1069;-67
2022/10/08 02:40:49;;;;;;;;;;;;;;;11.51;63.19;95878.13;5054462;28;1053;-67
2022/10/08 02:43:19;;;;;;;;;;;;;;;11.46;63.31;95875.03;5054346;28;1997;-67
2022/10/08 02:45:53;;;;;;;;;;;;;;;11.41;63.34;95873.78;5054328;28;1120;-67
2022/10/08 02:48:22;;;;;;;;;;;;;;;11.42;62.14;95879.00;5054520;28;981;-66
2022/10/08 02:50:50;;;;;;;;;;;;;;;11.43;62.62;95875.31;5054335;28;1241;-67
2022/10/08 02:53:17;;;;;;;;;;;;;;;11.44;63.07;95871.66;5054198;28;1049;-67
2022/10/08 02:55:47;;;;;;;;;;;;;;;11.43;62.32;95872.66;5054095;28;1143;-65
2022/10/08 02:58:13;;;;;;;;;;;;;;;11.44;62.53;95865.44;5053597;28;1052;-66
2022/10/08 03:00:52;;;;;;;;;;;;;;;11.43;62.21;95864.59;5054196;28;973;-67
2022/10/08 03:03:36;;;;;;;;;;;;;;;11.42;61.92;95872.78;5054107;28;1910;-66
2022/10/08 03:06:04;;;;;;;;;;;;;;;11.33;62.38;95869.19;5053968;28;1097;-66
2022/10/08 03:08:31;;;;;;;;;;;;;;;11.28;62.60;95866.94;5054125;28;1052;-66
2022/10/08 03:10:57;;;;;;;;;;;;;;;11.24;63.05;95864.72;5054146;28;1011;-66
2022/10/08 03:13:24;;;;;;;;;;;;;;;11.25;62.59;95861.91;5053792;28;1053;-66
2022/10/08 03:15:52;;;;;;;;;;;;;;;11.17;63.20;95863.59;5053873;28;1205;-66
2022/10/08 03:18:19;;;;;;;;;;;;;;;11.18;63.04;95866.16;5053763;28;949;-67
2022/10/08 03:20:48;;;;;;;;;;;;;;;11.22;63.08;95866.69;5053666;28;1041;-65
2022/10/08 03:23:15;;;;;;;;;;;;;;;11.19;62.99;95870.50;5053860;28;1991;-69
2022/10/08 03:25:41;;;;;;;;;;;;;;;11.12;62.12;95862.22;5053727;28;964;-65
2022/10/08 03:28:07;;;;;;;;;;;;;;;11.12;62.38;95864.06;5053627;28;1050;-66
2022/10/08 03:30:33;;;;;;;;;;;;;;;11.04;62.42;95864.78;5053619;28;970;-67
2022/10/08 03:32:59;;;;;;;;;;;;;;;11.00;62.99;95862.53;5053384;28;1243;-65
2022/10/08 03:35:25;;;;;;;;;;;;;;;11.00;62.70;95860.69;5053477;28;1049;-67
2022/10/08 03:37:52;;;;;;;;;;;;;;;11.04;62.53;95856.78;5053526;28;992;-67
2022/10/08 03:40:21;;;;;;;;;;;;;;;11.06;62.32;95857.47;5053425;28;1093;-66
2022/10/08 03:42:47;;;;;;;;;;;;;;;11.05;62.35;95868.31;5053276;28;1910;-66
2022/10/08 03:45:13;;;;;;;;;;;;;;;10.92;62.76;95857.94;5053389;28;1093;-66
2022/10/08 03:47:39;;;;;;;;;;;;;;;10.94;62.67;95864.81;5053261;28;1325;-66
2022/10/08 03:50:05;;;;;;;;;;;;;;;10.88;62.94;95859.22;5053566;28;1061;-68
2022/10/08 03:52:31;;;;;;;;;;;;;;;10.87;62.49;95849.47;5053150;28;1415;-69
2022/10/08 03:54:57;;;;;;;;;;;;;;;10.86;62.96;95854.00;5053441;28;1037;-69
2022/10/08 03:57:23;;;;;;;;;;;;;;;10.78;62.80;95855.72;5053311;28;1008;-68
2022/10/08 03:59:49;;;;;;;;;;;;;;;10.69;63.37;95852.91;5035619;28;1085;-68
2022/10/08 04:02:15;;;;;;;;;;;;;;;10.73;62.89;95851.63;5053221;28;1033;-69
2022/10/08 04:04:41;;;;;;;;;;;;;;;10.80;62.16;95859.09;5053008;28;1979;-69
2022/10/08 04:07:07;;;;;;;;;;;;;;;10.81;62.40;95847.41;5053336;28;1021;-68
2022/10/08 04:09:33;;;;;;;;;;;;;;;10.78;62.54;95861.09;5035354;28;1116;-69
2022/10/08 04:11:59;;;;;;;;;;;;;;;10.79;62.58;95852.06;5056976;28;1015;-67
2022/10/08 04:14:25;;;;;;;;;;;;;;;10.73;62.57;95856.16;5039323;28;1167;-68
2022/10/08 04:16:52;;;;;;;;;;;;;;;10.69;62.91;95854.75;5057197;28;1076;-68
2022/10/08 04:19:18;;;;;;;;;;;;;;;10.66;62.73;95852.34;5057096;28;1101;-68
2022/10/08 04:21:44;;;;;;;;;;;;;;;10.65;62.85;95856.88;5057247;28;1001;-68
2022/10/08 04:24:10;;;;;;;;;;;;;;;10.60;63.30;95848.44;5039500;28;1987;-68
2022/10/08 04:26:36;;;;;;;;;;;;;;;10.57;63.65;95848.75;5057027;28;997;-68
2022/10/08 04:29:02;;;;;;;;;;;;;;;10.59;63.86;95848.59;5057041;28;1050;-68
2022/10/08 04:31:28;;;;;;;;;;;;;;;10.64;63.75;95841.84;5056734;28;1081;-68
2022/10/08 04:33:55;;;;;;;;;;;;;;;10.68;63.07;95848.56;5056787;28;1050;-68
2022/10/08 04:36:22;;;;;;;;;;;;;;;10.72;63.51;95847.28;5057064;28;1024;-68
2022/10/08 04:38:48;;;;;;;;;;;;;;;10.62;62.83;95846.44;5056657;28;1037;-68
2022/10/08 04:41:15;;;;;;;;;;;;;;;10.57;63.18;95855.91;5056882;28;1041;-68
2022/10/08 04:43:42;;;;;;;;;;;;;;;10.55;63.20;95851.56;5056622;28;1917;-68
2022/10/08 04:46:09;;;;;;;;;;;;;;;10.62;62.87;95854.47;5056606;28;1125;-68
2022/10/08 04:48:36;;;;;;;;;;;;;;;10.55;63.50;95862.25;5056811;28;978;-68
2022/10/08 04:51:03;;;;;;;;;;;;;;;10.54;62.97;95857.03;5056772;28;1029;-69
2022/10/08 04:53:29;;;;;;;;;;;;;;;10.58;62.64;95853.09;5056635;28;1220;-68
2022/10/08 04:55:55;;;;;;;;;;;;;;;10.55;63.02;95856.06;5056485;28;1069;-68
2022/10/08 04:58:23;;;;;;;;;;;;;;;10.51;63.02;95846.66;5056512;28;962;-68
2022/10/08 05:00:49;;;;;;;;;;;;;;;10.53;63.28;95852.69;5056329;28;1057;-68
2022/10/08 05:03:15;;;;;;;;;;;;;;;10.47;62.97;95861.25;5056202;28;1917;-68
2022/10/08 05:05:42;;;;;;;;;;;;;;;10.49;62.90;95864.63;5056385;28;970;-67
2022/10/08 05:08:09;;;;;;;;;;;;;;;10.53;63.13;95860.72;5056455;28;1064;-68
2022/10/08 05:10:35;;;;;;;;;;;;;;;10.59;63.59;95860.13;5056216;28;1033;-68
2022/10/08 05:13:02;;;;;;;;;;;;;;;10.63;63.76;95863.38;5056204;28;1037;-68
2022/10/08 05:15:28;;;;;;;;;;;;;;;10.66;64.07;95863.06;5055878;28;1210;-68
2022/10/08 05:17:54;;;;;;;;;;;;;;;10.75;63.83;95865.69;5056037;28;1101;-67
2022/10/08 05:20:20;;;;;;;;;;;;;;;10.84;64.08;95872.03;5056192;28;1048;-68
2022/10/08 05:22:46;;;;;;;;;;;;;;;10.84;64.39;95874.72;5055405;28;1990;-68
2022/10/08 05:25:12;;;;;;;;;;;;;;;10.90;64.39;95867.94;5056023;28;1021;-67
2022/10/08 05:27:38;;;;;;;;;;;;;;;11.01;64.17;95875.78;5055814;28;1037;-67
2022/10/08 05:30:05;;;;;;;;;;;;;;;11.09;64.37;95869.69;5055842;28;1036;-66
2022/10/08 05:32:31;;;;;;;;;;;;;;;11.13;64.32;95868.41;5055477;28;1358;-66
2022/10/08 05:34:58;;;;;;;;;;;;;;;11.31;64.78;95879.19;5055927;28;1103;-66
2022/10/08 05:37:24;;;;;;;;;;;;;;;11.39;64.38;95873.94;5037899;28;1058;-66
2022/10/08 05:39:51;;;;;;;;;;;;;;;11.50;64.32;95888.97;5055229;28;1533;-67
2022/10/08 05:42:17;;;;;;;;;;;;;;;11.60;64.89;95892.44;5055072;28;978;-66
2022/10/08 05:44:43;;;;;;;;;;;;;;;11.62;65.42;95887.75;5037567;28;1900;-67
2022/10/08 05:47:10;;;;;;;;;;;;;;;11.67;65.20;95887.34;5041638;28;1662;-67
2022/10/08 05:49:37;;;;;;;;;;;;;;;11.70;64.42;95889.69;5054399;28;1683;-67
2022/10/08 05:52:03;;;;;;;;;;;;;;;11.71;65.65;95886.88;5055348;28;1077;-66
2022/10/08 05:54:30;;;;;;;;;;;;;;;11.76;65.25;95885.56;5054252;28;1005;-66
2022/10/08 05:56:56;;;;;;;;;;;;;;;11.81;64.85;95889.50;5037804;28;1485;-67
2022/10/08 05:59:23;;;;;;;;;;;;;;;11.92;66.09;95885.78;5037836;28;1438;-67
2022/10/08 06:01:50;;;;;;;;;;;;;;;12.02;65.64;95889.22;5053964;28;1093;-67
2022/10/08 06:04:19;;;;;;;;;;;;;;;12.05;65.74;95888.94;5053932;28;1985;-67
2022/10/08 06:06:46;;;;;;;;;;;;;;;12.17;65.02;95884.19;5055044;28;1109;-67
2022/10/08 06:09:14;;;;;;;;;;;;;;;12.28;64.40;95893.84;5053790;28;1500;-66
2022/10/08 06:11:41;;;;;;;;;;;;;;;12.26;64.61;95887.81;5055016;28;1013;-67
2022/10/08 06:14:09;;;;;;;;;;;;;;;12.34;66.08;95884.34;5054802;28;1154;-68
2022/10/08 06:16:35;;;;;;;;;;;;;;;12.60;65.35;95889.78;5054960;28;969;-67
2022/10/08 06:19:03;;;;;;;;;;;;;;;12.81;65.26;95882.22;5053793;28;1548;-67
2022/10/08 06:21:30;;;;;;;;;;;;;;;12.94;64.23;95886.31;5054958;28;1531;-67
2022/10/08 06:23:58;;;;;;;;;;;;;;;13.06;64.47;95888.56;5053612;28;1906;-67
2022/10/08 06:26:26;;;;;;;;;;;;;;;13.22;63.65;95877.09;5053673;28;1489;-69
2022/10/08 06:28:53;;;;;;;;;;;;;;;13.20;64.38;95875.56;5054120;28;1060;-70
2022/10/08 06:31:20;;;;;;;;;;;;;;;13.39;64.04;95882.56;5054158;28;1519;-69
2022/10/08 06:33:46;;;;;;;;;;;;;;;13.54;63.59;95885.50;5053673;28;945;-72
2022/10/08 06:36:14;;;;;;;;;;;;;;;13.69;63.28;95886.56;5053451;28;1109;-70
2022/10/08 06:38:40;;;;;;;;;;;;;;;13.77;62.40;95881.22;5053159;28;1113;-68
2022/10/08 06:41:07;;;;;;;;;;;;;;;13.81;62.64;95887.97;5054456;28;1570;-71
2022/10/08 06:43:34;;;;;;;;;;;;;;;13.86;62.16;95888.28;5053194;28;1996;-71
2022/10/08 06:46:04;;;;;;;;;;;;;;;13.91;62.96;95895.06;5053454;28;1348;-74
2022/10/08 06:48:30;;;;;;;;;;;;;;;13.98;62.38;95888.00;5016435;28;1634;-71
2022/10/08 06:51:01;;;;;;;;;;;;;;;14.01;62.25;95888.50;5034262;28;1120;-67
2022/10/08 06:53:28;;;;;;;;;;;;;;;14.09;62.34;95886.84;5016852;28;1573;-68
2022/10/08 06:55:55;;;;;;;;;;;;;;;14.20;61.46;95887.38;5016676;28;1054;-67
2022/10/08 06:58:22;;;;;;;;;;;;;;;14.36;61.01;95885.69;5034474;28;1070;-66
2022/10/08 07:00:48;;;;;;;;;;;;;;;14.51;60.06;95884.03;5034039;28;1053;-67
2022/10/08 07:03:14;;;;;;;;;;;;;;;14.62;61.23;95883.72;5032771;28;1906;-67
2022/10/08 07:05:42;;;;;;;;;;;;;;;14.71;60.43;95881.06;5033926;28;1109;-71
2022/10/08 07:08:08;;;;;;;;;;;;;;;14.77;61.35;95878.50;5034067;28;1089;-67
2022/10/08 07:10:34;;;;;;;;;;;;;;;14.86;60.42;95883.91;5033939;28;1045;-67
2022/10/08 07:13:00;;;;;;;;;;;;;;;14.83;60.50;95872.47;5000097;28;1512;-67
2022/10/08 07:15:27;;;;;;;;;;;;;;;14.87;60.52;95878.34;5038044;28;1502;-67
2022/10/08 07:17:53;;;;;;;;;;;;;;;15.00;60.89;95875.97;5052723;28;1089;-66
2022/10/08 07:20:19;;;;;;;;;;;;;;;15.14;59.75;95874.44;5052722;28;1065;-66
2022/10/08 07:22:45;;;;;;;;;;;;;;;15.10;59.57;95865.03;5052447;28;1921;-67
2022/10/08 07:25:11;;;;;;;;;;;;;;;15.20;59.56;95871.03;5053765;28;1033;-66
2022/10/08 07:27:38;;;;;;;;;;;;;;;15.45;60.43;95867.44;5052329;28;1144;-66
2022/10/08 07:30:04;;;;;;;;;;;;;;;15.68;59.64;95860.25;5053585;28;1066;-72
2022/10/08 07:32:31;;;;;;;;;;;;;;;15.89;58.21;95859.69;5052103;28;1413;-66
2022/10/08 07:34:58;;;;;;;;;;;;;;;16.15;57.85;95862.06;5052458;28;1002;-68
2022/10/08 07:37:24;;;;;;;;;;;;;;;16.52;56.70;95856.91;5035996;28;1501;-70
2022/10/08 07:39:50;;;;;;;;;;;;;;;16.77;56.03;95849.47;5052192;28;1524;-66
2022/10/08 07:42:17;;;;;;;;;;;;;;;16.94;55.43;95845.63;5052271;28;1049;-69
2022/10/08 07:44:43;;;;;;;;;;;;;;;17.14;54.84;95845.06;5051359;28;1986;-69
2022/10/08 07:47:10;;;;;;;;;;;;;;;17.33;54.88;95844.50;5051546;28;1066;-69
2022/10/08 07:49:36;;;;;;;;;;;;;;;17.70;53.92;95852.69;5034714;28;1584;-69
2022/10/08 07:52:03;;;;;;;;;;;;;;;17.90;52.98;95848.41;5035028;28;1418;-69
2022/10/08 07:54:29;;;;;;;;;;;;;;;18.17;53.73;95847.88;5051454;28;1065;-70
2022/10/08 07:56:55;;;;;;;;;;;;;;;18.45;53.47;95847.97;5053318;28;1040;-70
2022/10/08 07:59:22;;;;;;;;;;;;;;;18.65;52.40;95842.75;5051990;28;1113;-69
2022/10/08 08:01:49;;;;;;;;;;;;;;;18.73;52.20;95842.59;5052102;28;1054;-65
2022/10/08 08:04:15;;;;;;;;;;;;;;;18.78;52.29;95840.16;5053180;28;1996;-65
2022/10/08 08:06:51;;;;;;;;;;;;;;;19.15;51.82;95842.75;5051820;28;1717;-72
2022/10/08 08:09:18;;;;;;;;;;;;;;;19.36;50.56;95831.84;5053242;28;1119;-70
2022/10/08 08:11:45;;;;;;;;;;;;;;;19.47;51.10;95841.28;5052985;28;1090;-69
2022/10/08 08:14:11;;;;;;;;;;;;;;;19.74;50.04;95838.75;5052072;28;1627;-70
2022/10/08 08:16:39;;;;;;;;;;;;;;;20.60;48.62;95832.75;5035482;28;1624;-70
2022/10/08 08:19:07;;;;;;;;;;;;;;;21.44;46.53;95823.16;5035220;28;1648;-70
2022/10/08 08:21:35;;;;;;;;;;;;;;;21.26;46.81;95816.41;5035402;28;1660;-70
2022/10/08 08:24:04;;;;;;;;;;;;;;;21.06;47.93;95815.63;5052835;28;1913;-70
2022/10/08 08:26:32;;;;;;;;;;;;;;;21.16;47.81;95817.94;5035042;28;1156;-69
2022/10/08 08:29:11;;;;;;;;;;;;;;;21.18;46.76;95818.53;5053023;28;1508;-70
2022/10/08 08:31:39;;;;;;;;;;;;;;;21.38;46.98;95815.78;5052645;28;1094;-70
2022/10/08 08:34:07;;;;;;;;;;;;;;;21.66;46.51;95812.81;5034914;28;1691;-70
2022/10/08 08:36:37;;;;;;;;;;;;;;;22.19;45.07;95809.84;5035452;28;1675;-70
2022/10/08 08:39:06;;;;;;;;;;;;;;;23.75;41.88;95814.66;5035238;28;1616;-71
2022/10/08 08:41:52;;;;;;;;;;;;;;;24.60;40.14;95818.47;5035412;28;1508;-70
2022/10/08 08:44:21;;;;;;;;;;;;;;;23.69;41.17;95810.97;5018699;28;1914;-69
2022/10/08 08:47:08;;;;;;;;;;;;;;;23.29;41.96;95808.66;5052580;28;1139;-69
2022/10/08 08:49:37;;;;;;;;;;;;;;;23.12;42.47;95808.38;5042455;28;1260;-69
2022/10/08 08:52:05;;;;;;;;;;;;;;;22.86;43.05;95795.81;5034791;28;1505;-69
2022/10/08 08:54:32;;;;;;;;;;;;;;;23.05;42.28;95796.72;5034945;28;1606;-69
2022/10/08 08:57:08;;;;;;;;;;;;;;;23.65;41.47;95800.72;5037059;28;1542;-69
2022/10/08 08:59:39;;;;;;;;;;;;;;;25.19;37.44;95804.88;5038185;28;1530;-69
2022/10/08 09:02:16;;;;;;;;;;;;;;;24.93;39.58;95802.38;5056384;28;1092;-69
2022/10/08 09:04:54;;;;;;;;;;;;;;;23.84;41.36;95794.22;5056019;28;1918;-69
2022/10/08 09:07:25;;;;;;;;;;;;;;;23.16;42.46;95787.81;5038619;28;985;-69
2022/10/08 09:09:53;;;;;;;;;;;;;;;24.23;40.80;95792.06;5038735;28;1508;-69
2022/10/08 09:12:32;;;;;;;;;;;;;;;27.87;35.36;95808.84;5038709;28;1639;-70
2022/10/08 09:15:00;;;;;;;;;;;;;;;34.65;25.95;95846.00;5055995;28;1289;-70
2022/10/08 09:17:32;;;;;;;;;;;;;;;36.77;23.25;95856.03;5055908;28;1060;-69
2022/10/08 09:19:59;;;;;;;;;;;;;;;39.66;20.09;95865.59;5056098;28;1073;-70
2022/10/08 09:22:28;;;;;;;;;;;;;;;39.46;20.45;95860.66;5054861;28;1798;-70
2022/10/08 09:25:01;;;;;;;;;;;;;;;37.05;22.29;95848.44;5054609;28;1898;-70
2022/10/08 09:27:43;;;;;;;;;;;;;;;35.25;24.03;95837.09;5054726;28;1002;-70
2022/10/08 09:30:28;;;;;;;;;;;;;;;36.11;22.39;95842.31;5055871;28;1041;-69
2022/10/08 09:32:58;;;;;;;;;;;;;;;34.14;24.26;95822.44;5054162;28;1631;-70
2022/10/08 09:35:27;;;;;;;;;;;;;;;31.30;27.41;95807.63;5054702;28;1426;-70
2022/10/08 09:37:55;;;;;;;;;;;;;;;27.46;33.53;95771.50;5055714;28;1036;-65
2022/10/08 09:40:25;;;;;;;;;;;;;;;25.05;38.08;95744.94;5055627;28;1056;-65
2022/10/08 09:43:03;;;;;;;;;;;;;;;23.62;40.54;95732.94;5054678;28;1902;-63
2022/10/08 09:45:32;;;;;;;;;;;;;;;22.70;42.35;95720.03;5055351;28;1034;-64
2022/10/08 09:48:11;;;;;;;;;;;;;;;22.18;43.41;95709.31;5055475;28;1821;-64
2022/10/08 09:50:37;;;;;;;;;;;;;;;21.81;43.60;95701.78;5054990;28;1025;-65
2022/10/08 09:53:04;;;;;;;;;;;;;;;21.55;43.92;95710.94;5037516;28;973;-65
2022/10/08 09:55:34;;;;;;;;;;;;;;;21.36;44.98;95706.34;5037614;28;1024;-64
2022/10/08 09:58:03;;;;;;;;;;;;;;;21.27;45.21;95705.78;5037760;28;1018;-64
2022/10/08 10:00:31;;;;;;;;;;;;;;;21.16;46.29;95701.84;5055327;28;1025;-64
2022/10/08 10:02:59;;;;;;;;;;;;;;;21.08;46.30;95693.06;5037604;28;2004;-65
2022/10/08 10:05:26;;;;;;;;;;;;;;;20.98;46.13;95696.22;5055417;28;1231;-65
2022/10/08 10:07:54;;;;;;;;;;;;;;;20.84;46.61;95696.25;5055086;28;974;-65
2022/10/08 10:10:29;;;;;;;;;;;;;;;20.88;47.69;95695.84;5020742;28;1557;-65
2022/10/08 10:13:19;;;;;;;;;;;;;;;20.89;47.13;95689.34;5054789;28;1069;-65
2022/10/08 10:15:51;;;;;;;;;;;;;;;20.88;47.18;95688.53;5044775;28;1226;-65
2022/10/08 10:18:19;;;;;;;;;;;;;;;20.83;47.77;95685.59;5054849;28;1709;-66
2022/10/08 10:20:52;;;;;;;;;;;;;;;20.80;47.53;95689.59;5037011;28;1727;-64
2022/10/08 10:23:22;;;;;;;;;;;;;;;20.75;47.01;95681.22;5054771;28;1913;-65
2022/10/08 10:25:50;;;;;;;;;;;;;;;20.79;47.68;95682.50;5055023;28;1492;-64
2022/10/08 10:28:19;;;;;;;;;;;;;;;20.79;47.72;95679.78;5054711;28;1112;-65
2022/10/08 10:30:54;;;;;;;;;;;;;;;20.78;47.62;95683.53;5054585;28;1074;-64
2022/10/08 10:33:24;;;;;;;;;;;;;;;20.77;47.10;95673.72;5054186;28;1516;-65
2022/10/08 10:36:00;;;;;;;;;;;;;;;20.66;47.44;95664.31;5054475;28;1061;-64
2022/10/08 10:38:28;;;;;;;;;;;;;;;20.70;47.33;95664.75;5054425;28;1066;-64
2022/10/08 10:41:09;;;;;;;;;;;;;;;20.66;47.79;95653.47;5036796;28;1045;-64
2022/10/08 10:43:53;;;;;;;;;;;;;;;20.71;48.48;95652.81;5054355;28;1905;-65
2022/10/08 10:46:30;;;;;;;;;;;;;;;20.70;47.38;95651.16;5054628;28;1029;-64
2022/10/08 10:48:59;;;;;;;;;;;;;;;20.64;46.74;95643.81;5054503;28;1042;-64
2022/10/08 10:51:44;;;;;;;;;;;;;;;20.60;47.62;95637.16;5036751;28;1635;-64
2022/10/08 10:54:34;;;;;;;;;;;;;;;20.67;48.12;95640.69;5054100;28;1136;-65
2022/10/08 10:57:11;;;;;;;;;;;;;;;20.73;48.21;95637.13;5046848;28;1143;-65
2022/10/08 10:59:46;;;;;;;;;;;;;;;20.71;48.06;95633.78;5054238;28;1634;-65
2022/10/08 11:02:26;;;;;;;;;;;;;;;20.65;47.20;95624.59;5036290;28;1624;-63
2022/10/08 11:04:54;;;;;;;;;;;;;;;20.66;46.31;95625.47;5036382;28;1906;-65
2022/10/08 11:07:40;;;;;;;;;;;;;;;20.73;47.33;95620.00;5036179;28;1597;-64
2022/10/08 11:10:07;;;;;;;;;;;;;;;20.71;47.86;95619.38;5053831;28;1038;-64
2022/10/08 11:12:46;;;;;;;;;;;;;;;20.71;48.18;95612.06;5053749;28;1034;-65
2022/10/08 11:15:28;;;;;;;;;;;;;;;20.71;47.63;95612.06;5053649;28;1166;-65
2022/10/08 11:31:45;;;;;;;;;;;;;;;20.77;47.94;95578.63;5090670;27;1272;-63
2022/10/08 11:34:17;;;;;;;;;;;;;;;20.84;48.20;95571.25;5090532;28;1092;-63
2022/10/08 11:36:48;;;;;;;;;;;;;;;20.86;46.52;95569.16;5090602;28;1257;-63
2022/10/08 11:39:18;;;;;;;;;;;;;;;20.82;47.25;95562.47;5090642;28;1905;-63
2022/10/08 11:41:54;;;;;;;;;;;;;;;20.84;47.36;95557.66;5090509;28;1015;-63
2022/10/08 11:44:20;;;;;;;;;;;;;;;20.82;47.55;95559.75;5089225;28;1044;-63
2022/10/08 11:46:46;;;;;;;;;;;;;;;20.79;46.35;95552.06;5090264;28;1104;-62
2022/10/08 11:49:12;;;;;;;;;;;;;;;20.82;47.04;95545.34;5090162;28;1044;-62
2022/10/08 11:51:40;;;;;;;;;;;;;;;20.84;47.16;95544.06;5090343;28;1040;-62
2022/10/08 11:54:13;;;;;;;;;;;;;;;20.86;47.43;95539.25;5090124;28;1249;-63
2022/10/08 11:56:42;;;;;;;;;;;;;;;20.87;46.99;95534.69;5088990;28;973;-62
2022/10/08 11:59:26;;;;;;;;;;;;;;;20.88;47.10;95536.31;5090010;28;1910;-62
2022/10/08 12:01:54;;;;;;;;;;;;;;;20.91;47.25;95535.09;5090229;28;1004;-63
2022/10/08 12:04:21;;;;;;;;;;;;;;;20.89;46.74;95526.28;5089030;28;1047;-62
2022/10/08 12:06:58;;;;;;;;;;;;;;;20.88;47.23;95517.31;5088630;28;885;-62
2022/10/08 12:09:24;;;;;;;;;;;;;;;20.82;46.67;95516.28;5089966;28;1028;-62
2022/10/08 12:11:52;;;;;;;;;;;;;;;20.84;46.42;95513.34;5089791;28;1100;-62
2022/10/08 12:14:18;;;;;;;;;;;;;;;20.82;46.12;95508.13;5089841;28;1073;-62
2022/10/08 12:16:49;;;;;;;;;;;;;;;20.82;46.83;95499.16;5089647;28;1104;-62
2022/10/08 12:19:34;;;;;;;;;;;;;;;20.84;46.94;95502.47;5089627;28;1978;-63
2022/10/08 12:22:15;;;;;;;;;;;;;;;20.83;46.65;95498.94;5088079;28;963;-63
2022/10/08 12:24:45;;;;;;;;;;;;;;;20.80;46.92;95496.66;5088437;28;988;-62
2022/10/08 12:27:17;;;;;;;;;;;;;;;20.79;47.58;95491.41;5089886;28;941;-63
2022/10/08 12:29:52;;;;;;;;;;;;;;;20.83;47.26;95492.66;5089470;28;1350;-64
2022/10/08 12:32:18;;;;;;;;;;;;;;;20.86;48.57;95489.50;5078218;28;1041;-62
2022/10/08 12:34:44;;;;;;;;;;;;;;;20.85;47.57;95483.25;5076036;28;1047;-65
2022/10/08 12:37:18;;;;;;;;;;;;;;;20.86;46.89;95475.94;5108538;28;1041;-66
2022/10/08 12:39:44;;;;;;;;;;;;;;;20.85;47.41;95477.81;5076009;28;1910;-66
2022/10/08 12:53:24;;;;;;;;;;;;;;;21.03;45.61;95468.09;5131541;27;1271;-66
2022/10/08 12:55:52;;;;;;;;;;;;;;;21.04;46.36;95467.06;5131436;27;1056;-66
2022/10/08 12:58:21;;;;;;;;;;;;;;;21.06;46.32;95464.94;5147060;27;1228;-65
2022/10/08 13:00:49;;;;;;;;;;;;;;;21.08;46.57;95462.84;5130158;28;1914;-63
2022/10/08 13:03:17;;;;;;;;;;;;;;;21.04;46.59;95458.91;5131390;27;1051;-66
2022/10/08 13:05:43;;;;;;;;;;;;;;;21.00;47.13;95460.38;5130116;28;1023;-65
2022/10/08 13:08:24;;;;;;;;;;;;;;;20.99;47.29;95454.09;5123264;28;1210;-65
2022/10/08 13:10:50;;;;;;;;;;;;;;;20.99;45.64;95450.56;5110495;28;1071;-65
2022/10/08 13:13:30;;;;;;;;;;;;;;;21.03;44.77;95460.75;5110790;28;1024;-66
2022/10/08 13:15:57;;;;;;;;;;;;;;;21.10;43.86;95458.00;5116914;28;1298;-66
2022/10/08 13:18:23;;;;;;;;;;;;;;;21.12;43.82;95452.38;5129499;28;1055;-66
2022/10/08 13:21:00;;;;;;;;;;;;;;;21.15;45.42;95444.59;5130903;27;1918;-69
2022/10/08 13:23:34;;;;;;;;;;;;;;;21.14;45.76;95442.09;5130979;27;968;-68
2022/10/08 13:26:00;;;;;;;;;;;;;;;21.13;45.85;95437.69;5129567;28;1095;-69
2022/10/08 13:28:26;;;;;;;;;;;;;;;21.11;45.00;95443.34;5130858;27;1011;-69
2022/10/08 13:30:56;;;;;;;;;;;;;;;21.10;45.65;95439.00;5130746;27;979;-69
2022/10/08 13:33:25;;;;;;;;;;;;;;;21.10;45.96;95430.00;5130810;27;1030;-69
2022/10/08 13:35:51;;;;;;;;;;;;;;;21.09;45.74;95423.72;5129357;28;1115;-70